createdAt,value
2023-04-27T00:00:28.828Z,99642.56
2023-04-27T00:02:57.782Z,99643.09
2023-04-27T00:05:29.799Z,99639.78
2023-04-27T00:07:58.158Z,99641.59
2023-04-27T00:10:26.852Z,99640.94
2023-04-27T00:12:55.030Z,99633.84
2023-04-27T00:15:27.616Z,99646.22
2023-04-27T00:17:56.002Z,99649.88
2023-04-27T00:20:25.218Z,99642.28
2023-04-27T00:22:53.452Z,99648.72
2023-04-27T00:25:22.010Z,99654.97
2023-04-27T00:27:50.674Z,99655.97
2023-04-27T00:30:19.018Z,99650.03
2023-04-27T00:32:48.775Z,99648.38
2023-04-27T00:35:17.307Z,99650.19
2023-04-27T00:37:48.804Z,99642.28
2023-04-27T00:40:17.202Z,99644.75
2023-04-27T00:42:45.776Z,99649.03
2023-04-27T00:45:33.810Z,99641.28
2023-04-27T00:48:03.583Z,99642.44
2023-04-27T00:50:34.079Z,99643.44
2023-04-27T00:53:03.408Z,99637.00
2023-04-27T00:55:34.462Z,99628.44
2023-04-27T00:58:02.733Z,99633.38
2023-04-27T01:00:34.295Z,99647.41
2023-04-27T01:03:05.253Z,99635.34
2023-04-27T01:05:38.681Z,99646.56
2023-04-27T01:08:10.353Z,99640.13
2023-04-27T01:10:39.316Z,99637.34
2023-04-27T01:13:07.754Z,99638.81
2023-04-27T01:15:36.355Z,99642.59
2023-04-27T01:18:06.499Z,99639.66
2023-04-27T01:20:36.554Z,99635.53
2023-04-27T01:23:04.795Z,99630.56
2023-04-27T01:25:35.444Z,99640.63
2023-04-27T01:28:05.148Z,99641.63
2023-04-27T01:30:36.106Z,99636.50
2023-04-27T01:33:04.622Z,99643.94
2023-04-27T01:35:33.121Z,99639.66
2023-04-27T01:38:06.098Z,99641.63
2023-04-27T01:40:35.836Z,99641.63
2023-04-27T01:43:04.028Z,99642.13
2023-04-27T01:45:32.261Z,99640.63
2023-04-27T01:48:00.793Z,99647.53
2023-04-27T01:50:29.109Z,99640.63
2023-04-27T01:52:57.289Z,99639.81
2023-04-27T01:55:25.587Z,99642.59
2023-04-27T01:57:57.239Z,99644.09
2023-04-27T02:00:36.387Z,99638.00
2023-04-27T02:03:05.044Z,99638.50
2023-04-27T02:05:33.332Z,99649.53
2023-04-27T02:08:01.563Z,99633.88
2023-04-27T02:10:30.134Z,99645.09
2023-04-27T02:13:00.444Z,99637.34
2023-04-27T02:15:28.776Z,99648.56
2023-04-27T02:18:07.943Z,99637.03
2023-04-27T02:20:36.461Z,99643.13
2023-04-27T02:23:05.212Z,99639.00
2023-04-27T02:25:33.391Z,99634.38
2023-04-27T02:28:03.138Z,99644.94
2023-04-27T02:30:32.253Z,99649.72
2023-04-27T02:33:01.125Z,99657.13
2023-04-27T02:35:29.713Z,99641.94
2023-04-27T02:37:59.740Z,99653.84
2023-04-27T02:40:28.494Z,99655.81
2023-04-27T02:42:57.463Z,99649.19
2023-04-27T02:45:28.652Z,99649.88
2023-04-27T02:47:57.113Z,99645.25
2023-04-27T02:50:25.430Z,99654.81
2023-04-27T02:52:53.741Z,99654.00
2023-04-27T02:55:22.210Z,99660.91
2023-04-27T02:57:50.525Z,99659.25
2023-04-27T03:00:19.976Z,99659.25
2023-04-27T03:02:50.049Z,99661.91
2023-04-27T03:05:23.271Z,99666.19
2023-04-27T03:07:51.790Z,99661.75
2023-04-27T03:10:20.304Z,99658.44
2023-04-27T03:12:48.680Z,99663.19
2023-04-27T03:15:17.116Z,99661.91
2023-04-27T03:17:46.303Z,99669.50
2023-04-27T03:20:16.324Z,99673.44
2023-04-27T03:22:45.945Z,99664.84
2023-04-27T03:25:14.693Z,99663.03
2023-04-27T03:27:43.625Z,99681.69
2023-04-27T03:30:13.426Z,99674.44
2023-04-27T03:32:41.791Z,99677.91
2023-04-27T03:35:11.135Z,99684.31
2023-04-27T03:37:46.187Z,99685.81
2023-04-27T03:40:15.704Z,99686.63
2023-04-27T03:42:47.372Z,99684.16
2023-04-27T03:45:19.882Z,99683.66
2023-04-27T03:47:48.758Z,99680.50
2023-04-27T03:50:18.027Z,99682.16
2023-04-27T03:52:50.239Z,99684.97
2023-04-27T03:55:18.972Z,99682.97
2023-04-27T03:57:49.924Z,99686.09
2023-04-27T04:00:18.584Z,99689.06
2023-04-27T04:02:47.115Z,99694.50
2023-04-27T04:05:16.119Z,99693.97
2023-04-27T04:07:49.416Z,99685.72
2023-04-27T04:10:17.636Z,99688.16
2023-04-27T04:12:48.353Z,99702.53
2023-04-27T04:15:21.916Z,99700.19
2023-04-27T04:17:51.466Z,99696.22
2023-04-27T04:20:19.744Z,99691.25
2023-04-27T04:22:51.622Z,99699.28
2023-04-27T04:25:20.940Z,99708.38
2023-04-27T04:27:49.672Z,99703.41
2023-04-27T04:30:18.197Z,99710.63
2023-04-27T04:32:46.399Z,99704.69
2023-04-27T04:35:16.277Z,99699.69
2023-04-27T04:37:47.164Z,99707.59
2023-04-27T04:40:19.940Z,99696.84
2023-04-27T04:42:48.405Z,99706.03
2023-04-27T04:45:16.655Z,99711.09
2023-04-27T04:47:49.185Z,99707.75
2023-04-27T04:50:17.562Z,99712.97
2023-04-27T04:52:46.219Z,99711.28
2023-04-27T04:55:15.528Z,99716.22
2023-04-27T04:57:47.525Z,99718.16
2023-04-27T05:00:16.477Z,99714.63
2023-04-27T05:02:44.903Z,99714.75
2023-04-27T05:05:13.316Z,99722.63
2023-04-27T05:07:43.015Z,99720.94
2023-04-27T05:10:12.830Z,99712.63
2023-04-27T05:12:41.186Z,99718.50
2023-04-27T05:15:12.276Z,99717.25
2023-04-27T05:17:41.151Z,99720.63
2023-04-27T05:20:10.949Z,99710.34
2023-04-27T05:22:39.226Z,99710.06
2023-04-27T05:25:08.635Z,99717.66
2023-04-27T05:27:39.449Z,99709.44
2023-04-27T05:30:08.928Z,99711.63
2023-04-27T05:32:39.728Z,99722.16
2023-04-27T05:35:09.099Z,99717.75
2023-04-27T05:37:41.752Z,99721.31
2023-04-27T05:40:10.707Z,99726.53
2023-04-27T05:42:39.159Z,99725.59
2023-04-27T05:45:08.984Z,99725.69
2023-04-27T05:47:38.775Z,99718.06
2023-04-27T05:50:08.042Z,99717.94
2023-04-27T05:52:38.139Z,99728.47
2023-04-27T05:55:08.206Z,99730.34
2023-04-27T05:57:36.506Z,99729.69
2023-04-27T06:00:10.530Z,99732.19
2023-04-27T06:02:40.794Z,99730.25
2023-04-27T06:05:10.197Z,99729.09
2023-04-27T06:07:38.781Z,99745.66
2023-04-27T06:10:08.253Z,99738.13
2023-04-27T06:12:38.013Z,99733.44
2023-04-27T06:15:08.693Z,99737.56
2023-04-27T06:17:37.444Z,99735.41
2023-04-27T06:20:09.629Z,99735.66
2023-04-27T06:22:38.321Z,99743.94
2023-04-27T06:25:07.651Z,99734.00
2023-04-27T06:27:42.771Z,99739.56
2023-04-27T06:30:12.137Z,99742.59
2023-04-27T06:32:40.843Z,99739.00
2023-04-27T06:35:11.493Z,99736.75
2023-04-27T06:37:48.056Z,99739.66
2023-04-27T06:40:16.768Z,99744.44
2023-04-27T06:42:45.084Z,99745.34
2023-04-27T06:45:13.685Z,99745.44
2023-04-27T06:47:42.326Z,99740.94
2023-04-27T06:50:12.323Z,99742.97
2023-04-27T06:52:40.693Z,99736.84
2023-04-27T06:55:09.859Z,99749.22
2023-04-27T06:57:38.221Z,99746.34
2023-04-27T07:00:07.653Z,99743.88
2023-04-27T07:02:36.248Z,99748.66
2023-04-27T07:05:04.856Z,99745.41
2023-04-27T07:07:36.473Z,99747.69
2023-04-27T07:10:06.487Z,99746.63
2023-04-27T07:12:35.199Z,99743.78
2023-04-27T07:15:04.568Z,99749.91
2023-04-27T07:17:33.011Z,99751.41
2023-04-27T07:20:04.147Z,99752.72
2023-04-27T07:22:32.378Z,99757.03
2023-04-27T07:25:02.291Z,99749.44
2023-04-27T07:27:31.946Z,99764.97
2023-04-27T07:30:00.320Z,99765.66
2023-04-27T07:32:30.793Z,99763.06
2023-04-27T07:34:59.750Z,99756.09
2023-04-27T07:37:28.953Z,99772.75
2023-04-27T07:39:58.118Z,99767.19
2023-04-27T07:42:27.772Z,99766.06
2023-04-27T07:44:57.280Z,99768.00
2023-04-27T07:47:26.101Z,99778.06
2023-04-27T07:49:54.315Z,99767.00
2023-04-27T07:52:22.765Z,99771.16
2023-04-27T07:54:51.251Z,99781.34
2023-04-27T07:57:19.566Z,99770.75
2023-04-27T07:59:49.481Z,99785.97
2023-04-27T08:02:20.025Z,99789.13
2023-04-27T08:04:51.070Z,99791.63
2023-04-27T08:07:20.139Z,99799.44
2023-04-27T08:09:48.461Z,99798.84
2023-04-27T08:12:16.701Z,99788.38
2023-04-27T08:14:46.183Z,99794.03
2023-04-27T08:17:17.577Z,99793.28
2023-04-27T08:19:45.933Z,99801.94
2023-04-27T08:22:15.002Z,99804.00
2023-04-27T08:24:45.064Z,99789.44
2023-04-27T08:27:13.311Z,99793.69
2023-04-27T08:29:47.148Z,99793.88
2023-04-27T08:32:17.458Z,99795.28
2023-04-27T08:34:48.599Z,99798.47
2023-04-27T08:37:18.843Z,99806.03
2023-04-27T08:39:49.679Z,99795.94
2023-04-27T08:42:18.026Z,99803.84
2023-04-27T08:44:46.918Z,99791.94
2023-04-27T08:47:16.878Z,99806.53
2023-04-27T08:49:45.203Z,99803.69
2023-04-27T08:52:15.075Z,99799.09
2023-04-27T08:54:45.620Z,99801.44
2023-04-27T08:57:14.730Z,99802.72
2023-04-27T08:59:44.609Z,99795.31
2023-04-27T09:02:21.737Z,99805.84
2023-04-27T09:04:51.206Z,99797.63
2023-04-27T09:07:21.365Z,99803.78
2023-04-27T09:09:49.751Z,99798.22
2023-04-27T09:12:19.678Z,99801.69
2023-04-27T09:14:58.189Z,99790.31
2023-04-27T09:17:28.886Z,99794.50
2023-04-27T09:20:09.251Z,99805.59
2023-04-27T09:22:47.756Z,99814.03
2023-04-27T09:25:29.375Z,99806.44
2023-04-27T09:28:03.406Z,99815.50
2023-04-27T09:30:33.833Z,99809.72
2023-04-27T09:33:03.964Z,99803.59
2023-04-27T09:35:37.963Z,99803.59
2023-04-27T09:38:06.777Z,99809.53
2023-04-27T09:40:36.971Z,99808.50
2023-04-27T09:43:05.375Z,99803.38
2023-04-27T09:45:35.017Z,99803.38
2023-04-27T09:48:06.395Z,99800.28
2023-04-27T09:50:38.892Z,99805.19
2023-04-27T09:53:11.085Z,99810.13
2023-04-27T09:55:42.634Z,99821.41
2023-04-27T09:58:31.745Z,99816.47
2023-04-27T10:01:07.302Z,99817.22
2023-04-27T10:03:47.692Z,99819.44
2023-04-27T10:07:02.022Z,99809.56
2023-04-27T10:09:37.748Z,99803.22
2023-04-27T10:12:18.213Z,99800.41
2023-04-27T10:14:54.299Z,99804.16
2023-04-27T10:17:30.329Z,99811.78
2023-04-27T10:20:01.551Z,99805.41
2023-04-27T10:22:40.666Z,99809.50
2023-04-27T10:25:22.800Z,99805.88
2023-04-27T10:27:53.431Z,99807.00
2023-04-27T10:30:23.187Z,99798.28
2023-04-27T10:32:56.517Z,99806.88
2023-04-27T10:35:35.194Z,99808.47
2023-04-27T10:38:10.780Z,99807.00
2023-04-27T10:40:40.732Z,99818.31
2023-04-27T10:43:14.966Z,99814.94
2023-04-27T10:45:44.190Z,99825.78
2023-04-27T10:48:16.038Z,99834.06
2023-04-27T10:50:46.980Z,99840.75
2023-04-27T10:53:15.862Z,99842.28
2023-04-27T10:55:44.266Z,99848.03
2023-04-27T10:58:12.668Z,99855.25
2023-04-27T11:00:44.552Z,99851.59
2023-04-27T11:03:17.244Z,99843.78
2023-04-27T11:05:49.249Z,99842.97
2023-04-27T11:08:34.275Z,99847.63
2023-04-27T11:11:02.474Z,99838.75
2023-04-27T11:13:31.153Z,99840.75
2023-04-27T11:16:00.752Z,99845.53
2023-04-27T11:18:34.709Z,99849.50
2023-04-27T11:21:09.942Z,99851.16
2023-04-27T11:23:39.490Z,99848.44
2023-04-27T11:26:14.437Z,99856.06
2023-04-27T11:28:42.760Z,99861.19
2023-04-27T11:31:11.719Z,99856.09
2023-04-27T11:33:49.895Z,99857.34
2023-04-27T11:36:21.242Z,99879.09
2023-04-27T11:38:49.746Z,99870.66
2023-04-27T11:41:19.210Z,99865.50
2023-04-27T11:43:49.506Z,99870.78
2023-04-27T11:46:21.718Z,99873.81
2023-04-27T11:48:50.784Z,99877.56
2023-04-27T11:51:20.571Z,99874.13
2023-04-27T11:53:51.382Z,99883.59
2023-04-27T11:56:19.807Z,99887.53
2023-04-27T11:58:50.475Z,99890.81
2023-04-27T12:01:27.757Z,99881.16
2023-04-27T12:04:05.641Z,99889.38
2023-04-27T12:06:35.687Z,99882.38
2023-04-27T12:09:05.366Z,99886.69
2023-04-27T12:11:34.212Z,99873.75
2023-04-27T12:14:04.057Z,99877.59
2023-04-27T12:16:35.618Z,99889.75
2023-04-27T12:19:04.449Z,99880.09
2023-04-27T12:21:35.268Z,99895.75
2023-04-27T12:24:03.447Z,99898.22
2023-04-27T12:26:37.008Z,99895.34
2023-04-27T12:29:05.424Z,99913.81
2023-04-27T12:31:34.122Z,99896.34
2023-04-27T12:34:02.736Z,99893.47
2023-04-27T12:36:31.966Z,99911.75
2023-04-27T12:39:14.763Z,99900.66
2023-04-27T12:41:45.447Z,99905.75
2023-04-27T12:44:14.874Z,99904.09
2023-04-27T12:46:44.977Z,99915.97
2023-04-27T12:49:13.760Z,99914.72
2023-04-27T12:51:42.261Z,99914.47
2023-04-27T12:54:13.137Z,99915.50
2023-04-27T12:56:42.174Z,99907.41
2023-04-27T12:59:11.137Z,99921.53
2023-04-27T13:01:39.422Z,99911.50
2023-04-27T13:04:09.401Z,99932.34
2023-04-27T13:06:38.851Z,99938.34
2023-04-27T13:09:07.248Z,99940.81
2023-04-27T13:11:37.424Z,99933.16
2023-04-27T13:14:06.482Z,99926.53
2023-04-27T13:16:34.779Z,99926.47
2023-04-27T13:19:03.044Z,99951.53
2023-04-27T13:21:34.493Z,99941.72
2023-04-27T13:24:02.730Z,99947.94
2023-04-27T13:26:31.409Z,99952.81
2023-04-27T13:29:01.337Z,99952.34
2023-04-27T13:31:34.123Z,99952.94
2023-04-27T13:34:04.709Z,99947.94
2023-04-27T13:36:33.002Z,99951.44
2023-04-27T13:39:02.201Z,99947.50
2023-04-27T13:41:30.370Z,99962.34
2023-04-27T13:43:58.605Z,99954.94
2023-04-27T13:46:28.335Z,99960.91
2023-04-27T13:48:57.221Z,99965.22
2023-04-27T13:51:26.761Z,99962.78
2023-04-27T13:53:55.036Z,99972.25
2023-04-27T13:56:23.242Z,99970.59
2023-04-27T13:58:51.546Z,99971.44
2023-04-27T14:01:20.187Z,99973.25
2023-04-27T14:03:50.010Z,99980.81
2023-04-27T14:06:18.522Z,99974.56
2023-04-27T14:08:46.882Z,99979.50
2023-04-27T14:11:16.329Z,99971.53
2023-04-27T14:13:44.427Z,99979.75
2023-04-27T14:16:12.618Z,99985.13
2023-04-27T14:18:42.331Z,99996.72
2023-04-27T14:21:12.157Z,99993.44
2023-04-27T14:23:40.452Z,99985.81
2023-04-27T14:26:09.268Z,99980.22
2023-04-27T14:28:37.434Z,100007.84
2023-04-27T14:31:05.608Z,99994.06
2023-04-27T14:33:34.254Z,99996.56
2023-04-27T14:36:02.533Z,100001.41
2023-04-27T14:38:33.801Z,100007.28
2023-04-27T14:41:04.663Z,100012.41
2023-04-27T14:43:33.040Z,100002.22
2023-04-27T14:46:12.617Z,99988.09
2023-04-27T14:48:49.323Z,100013.31
2023-04-27T14:51:18.259Z,100018.50
2023-04-27T14:53:47.913Z,100018.72
2023-04-27T14:56:16.242Z,100022.00
2023-04-27T14:58:44.551Z,100008.03
2023-04-27T15:01:12.811Z,100014.03
2023-04-27T15:03:42.036Z,100019.34
2023-04-27T15:06:10.664Z,100021.22
2023-04-27T15:08:40.418Z,100023.06
2023-04-27T15:11:10.141Z,100019.34
2023-04-27T15:13:38.573Z,100031.69
2023-04-27T15:16:07.565Z,100036.44
2023-04-27T15:18:36.383Z,100047.94
2023-04-27T15:21:04.720Z,100048.78
2023-04-27T15:23:33.880Z,100033.16
2023-04-27T15:26:02.240Z,100044.06
2023-04-27T15:28:34.928Z,100044.28
2023-04-27T15:31:07.495Z,100053.88
2023-04-27T15:33:35.954Z,100043.69
2023-04-27T15:36:04.956Z,100066.44
2023-04-27T15:38:35.043Z,100053.25
2023-04-27T15:41:03.390Z,100054.38
2023-04-27T15:43:33.101Z,100064.25
2023-04-27T15:46:08.693Z,100056.38
2023-04-27T15:48:37.001Z,100057.63
2023-04-27T15:51:09.539Z,100065.88
2023-04-27T15:53:38.604Z,100057.97
2023-04-27T15:56:18.879Z,100063.44
2023-04-27T15:58:48.444Z,100078.69
2023-04-27T16:01:16.746Z,100069.97
2023-04-27T16:03:45.083Z,100065.88
2023-04-27T16:06:13.278Z,100073.22
2023-04-27T16:08:41.745Z,100074.22
2023-04-27T16:11:10.155Z,100086.66
2023-04-27T16:13:38.394Z,100076.78
2023-04-27T16:16:09.113Z,100079.94
2023-04-27T16:18:38.825Z,100070.06
2023-04-27T16:21:07.352Z,100089.44
2023-04-27T16:23:35.502Z,100084.09
2023-04-27T16:26:04.184Z,100099.88
2023-04-27T16:28:32.949Z,100094.84
2023-04-27T16:31:01.133Z,100102.94
2023-04-27T16:33:31.390Z,100090.34
2023-04-27T16:35:59.669Z,100080.88
2023-04-27T16:38:29.774Z,100087.47
2023-04-27T16:40:58.449Z,100092.38
2023-04-27T16:43:26.979Z,100095.19
2023-04-27T16:45:56.088Z,100095.25
2023-04-27T16:48:24.351Z,100090.69
2023-04-27T16:50:55.872Z,100092.78
2023-04-27T16:53:24.380Z,100095.38
2023-04-27T16:55:54.727Z,100135.97
2023-04-27T16:58:24.529Z,100093.97
2023-04-27T17:00:52.885Z,100102.59
2023-04-27T17:03:21.184Z,100104.38
2023-04-27T17:05:49.905Z,100099.59
2023-04-27T17:08:20.308Z,100110.19
2023-04-27T17:10:48.857Z,100110.88
2023-04-27T17:13:17.468Z,100128.22
2023-04-27T17:15:47.527Z,100118.75
2023-04-27T17:18:15.937Z,100127.09
2023-04-27T17:20:44.280Z,100123.25
2023-04-27T17:23:12.538Z,100133.53
2023-04-27T17:25:42.780Z,100131.72
2023-04-27T17:28:12.709Z,100112.34
2023-04-27T17:30:42.588Z,100123.44
2023-04-27T17:33:10.972Z,100131.22
2023-04-27T17:35:44.589Z,100120.38
2023-04-27T17:38:14.678Z,100138.19
2023-04-27T17:40:44.623Z,100139.84
2023-04-27T17:43:13.539Z,100142.63
2023-04-27T17:45:43.026Z,100147.53
2023-04-27T17:48:11.472Z,100139.03
2023-04-27T17:50:48.285Z,100149.84
2023-04-27T17:53:35.464Z,100147.38
2023-04-27T17:56:05.643Z,100152.38
2023-04-27T17:58:33.823Z,100153.06
2023-04-27T18:01:04.687Z,100150.41
2023-04-27T18:03:33.087Z,100159.72
2023-04-27T18:06:01.535Z,100166.72
2023-04-27T18:08:31.133Z,100171.56
2023-04-27T18:10:59.388Z,100173.00
2023-04-27T18:13:33.180Z,100177.06
2023-04-27T18:16:01.552Z,100183.16
2023-04-27T18:18:35.899Z,100177.03
2023-04-27T18:21:04.382Z,100181.19
2023-04-27T18:23:35.535Z,100180.59
2023-04-27T18:26:03.737Z,100188.03
2023-04-27T18:28:33.489Z,100193.38
2023-04-27T18:31:01.783Z,100188.50
2023-04-27T18:33:30.038Z,100189.38
2023-04-27T18:35:58.282Z,100191.44
2023-04-27T18:38:31.220Z,100199.47
2023-04-27T18:40:59.764Z,100192.09
2023-04-27T18:43:28.008Z,100184.41
2023-04-27T18:46:00.125Z,100195.16
2023-04-27T18:48:29.832Z,100203.13
2023-04-27T18:50:58.194Z,100204.25
2023-04-27T18:53:28.717Z,100215.63
2023-04-27T18:55:57.169Z,100209.28
2023-04-27T18:58:25.471Z,100217.44
2023-04-27T19:00:57.663Z,100216.50
2023-04-27T19:03:28.919Z,100222.91
2023-04-27T19:05:58.916Z,100221.34
2023-04-27T19:08:27.246Z,100220.56
2023-04-27T19:10:55.636Z,100224.63
2023-04-27T19:13:23.951Z,100222.13
2023-04-27T19:15:52.808Z,100221.53
2023-04-27T19:18:23.554Z,100235.03
2023-04-27T19:20:53.560Z,100224.91
2023-04-27T19:23:22.036Z,100237.06
2023-04-27T19:25:50.675Z,100241.72
2023-04-27T19:28:21.771Z,100234.66
2023-04-27T19:30:50.812Z,100237.00
2023-04-27T19:33:20.433Z,100236.41
2023-04-27T19:35:53.210Z,100236.41
2023-04-27T19:38:25.302Z,100234.78
2023-04-27T19:40:53.888Z,100241.09
2023-04-27T19:43:22.268Z,100242.59
2023-04-27T19:45:51.211Z,100243.31
2023-04-27T19:48:19.618Z,100249.63
2023-04-27T19:50:47.839Z,100244.34
2023-04-27T19:53:17.495Z,100251.66
2023-04-27T19:55:46.996Z,100239.41
2023-04-27T19:58:19.011Z,100252.84
2023-04-27T20:00:47.413Z,100254.38
2023-04-27T20:03:15.900Z,100257.72
2023-04-27T20:05:45.058Z,100250.91
2023-04-27T20:08:13.549Z,100248.81
2023-04-27T20:10:43.606Z,100257.09
2023-04-27T20:13:12.376Z,100263.56
2023-04-27T20:15:40.790Z,100261.91
2023-04-27T20:18:10.357Z,100254.81
2023-04-27T20:20:41.053Z,100261.63
2023-04-27T20:23:19.658Z,100260.31
2023-04-27T20:25:49.901Z,100262.47
2023-04-27T20:28:18.418Z,100256.50
2023-04-27T20:30:46.732Z,100267.59
2023-04-27T20:33:15.673Z,100269.78
2023-04-27T20:35:43.905Z,100267.63
2023-04-27T20:38:12.493Z,100265.47
2023-04-27T20:40:42.277Z,100257.38
2023-04-27T20:43:13.502Z,100271.31
2023-04-27T20:45:41.756Z,100255.41
2023-04-27T20:48:12.021Z,100274.09
2023-04-27T20:50:41.286Z,100267.81
2023-04-27T20:53:09.694Z,100262.03
2023-04-27T20:55:38.388Z,100269.31
2023-04-27T20:58:10.444Z,100272.13
2023-04-27T21:00:40.078Z,100266.50
2023-04-27T21:03:08.548Z,100278.09
2023-04-27T21:05:36.950Z,100267.19
2023-04-27T21:08:06.557Z,100273.78
2023-04-27T21:10:35.903Z,100271.63
2023-04-27T21:13:05.021Z,100274.13
2023-04-27T21:15:33.572Z,100281.91
2023-04-27T21:18:06.417Z,100280.91
2023-04-27T21:20:36.223Z,100285.38
2023-04-27T21:23:04.992Z,100277.94
2023-04-27T21:25:33.236Z,100286.06
2023-04-27T21:28:01.756Z,100294.81
2023-04-27T21:30:31.369Z,100288.03
2023-04-27T21:32:59.793Z,100285.38
2023-04-27T21:35:31.200Z,100291.00
2023-04-27T21:37:59.984Z,100291.31
2023-04-27T21:40:29.515Z,100293.47
2023-04-27T21:42:57.868Z,100291.00
2023-04-27T21:45:34.165Z,100293.78
2023-04-27T21:48:02.833Z,100301.72
2023-04-27T21:50:32.544Z,100298.56
2023-04-27T21:53:01.277Z,100297.09
2023-04-27T21:55:32.794Z,100294.78
2023-04-27T21:58:01.002Z,100290.63
2023-04-27T22:00:29.285Z,100293.59
2023-04-27T22:02:58.448Z,100293.75
2023-04-27T22:05:29.561Z,100298.41
2023-04-27T22:07:59.819Z,100299.03
2023-04-27T22:10:28.583Z,100305.78
2023-04-27T22:12:58.323Z,100310.91
2023-04-27T22:15:30.835Z,100310.56
2023-04-27T22:17:59.715Z,100315.34
2023-04-27T22:20:28.326Z,100311.38
2023-04-27T22:22:56.810Z,100314.47
2023-04-27T22:25:28.602Z,100314.00
2023-04-27T22:27:56.790Z,100307.50
2023-04-27T22:30:25.290Z,100318.09
2023-04-27T22:32:53.703Z,100314.75
2023-04-27T22:35:27.147Z,100311.44
2023-04-27T22:37:56.804Z,100315.41
2023-04-27T22:40:29.241Z,100319.03
2023-04-27T22:42:57.832Z,100322.97
2023-04-27T22:45:26.166Z,100319.50
2023-04-27T22:47:54.802Z,100326.59
2023-04-27T22:50:23.366Z,100322.44
2023-04-27T22:52:53.092Z,100328.06
2023-04-27T22:55:22.295Z,100323.94
2023-04-27T22:57:53.987Z,100328.38
2023-04-27T23:00:23.812Z,100321.06
2023-04-27T23:02:54.177Z,100324.53
2023-04-27T23:05:22.669Z,100323.88
2023-04-27T23:07:52.078Z,100325.81
2023-04-27T23:10:20.395Z,100327.16
2023-04-27T23:12:48.717Z,100328.28
2023-04-27T23:15:18.903Z,100328.59
2023-04-27T23:17:47.285Z,100324.59
2023-04-27T23:20:27.553Z,100336.13
2023-04-27T23:22:56.733Z,100332.16
2023-04-27T23:25:28.947Z,100335.94
2023-04-27T23:27:57.754Z,100330.28
2023-04-27T23:30:27.606Z,100326.16
2023-04-27T23:32:55.963Z,100325.63
2023-04-27T23:35:45.934Z,100328.56
2023-04-27T23:38:14.436Z,100331.66
2023-04-27T23:40:44.193Z,100331.03
2023-04-27T23:43:12.403Z,100333.28
2023-04-27T23:45:42.099Z,100334.41
2023-04-27T23:48:10.587Z,100325.59
2023-04-27T23:50:38.868Z,100337.81
2023-04-27T23:53:08.424Z,100335.47
2023-04-27T23:55:36.661Z,100336.91
2023-04-27T23:58:05.551Z,100341.50
